Time;durP1;ratioP1;P1;durP2;ratioP2;P2;SDS_P1;SDS_P2;PMS_P1;PMS_P2;Temp;Humidity;BMP_temperature;BMP_pressure;BME280_temperature;BME280_humidity;BME280_pressure;Samples;Min_cycle;Max_cycle;Signal;HPM_P1;HPM_P2
2021/06/20 00:01:53;;;;;;;5.47;1.90;;;;;;;22.11;65.78;100322.74;1736891;81;20967;-56
2021/06/20 00:04:22;;;;;;;3.37;1.75;;;;;;;22.09;65.90;100315.98;1710529;83;21082;-55
2021/06/20 00:06:50;;;;;;;12.75;2.15;;;;;;;22.05;65.89;100309.75;1739490;81;21179;-55
2021/06/20 00:09:18;;;;;;;8.25;2.22;;;;;;;22.02;66.16;100317.14;1739604;81;21046;-55
2021/06/20 00:11:48;;;;;;;4.40;1.82;;;;;;;21.99;66.16;100315.58;1742283;81;21422;-56
2021/06/20 00:14:14;;;;;;;;;;;;;;;21.98;66.00;100313.94;1741856;81;21003;-57
2021/06/20 00:16:42;;;;;;;9.85;1.77;;;;;;;21.96;65.85;100308.78;1742242;81;20137;-57
2021/06/20 00:19:09;;;;;;;4.75;1.60;;;;;;;21.95;65.34;100302.26;1740961;81;21166;-57
2021/06/20 00:21:38;;;;;;;6.80;1.60;;;;;;;21.95;65.41;100304.98;1709304;83;21035;-56
2021/06/20 00:24:06;;;;;;;7.17;1.62;;;;;;;21.94;65.29;100304.75;1736837;81;20991;-56
2021/06/20 00:26:33;;;;;;;;;;;;;;;21.93;65.19;100291.64;1744163;81;21501;-56
2021/06/20 00:28:59;;;;;;;3.62;1.72;;;;;;;21.93;64.94;100284.81;1742384;81;20084;-57
2021/06/20 00:31:26;;;;;;;4.15;1.80;;;;;;;21.92;64.84;100286.48;1755317;80;21856;-57
2021/06/20 00:33:52;;;;;;;4.53;1.50;;;;;;;21.92;64.61;100289.20;1760582;80;20947;-57
2021/06/20 00:36:19;;;;;;;8.00;1.52;;;;;;;21.92;64.27;100291.94;1765258;80;20885;-56
2021/06/20 00:38:46;;;;;;;7.37;1.72;;;;;;;21.91;64.31;100284.31;1763496;80;20996;-56
2021/06/20 00:41:12;;;;;;;2.00;1.47;;;;;;;21.91;64.53;100287.58;1766775;80;21038;-56
2021/06/20 00:43:39;;;;;;;11.03;1.85;;;;;;;21.91;64.19;100290.31;1763673;80;21500;-56
2021/06/20 00:46:08;;;;;;;7.97;1.40;;;;;;;21.88;64.19;100293.89;1762044;80;20955;-56
2021/06/20 00:48:34;;;;;;;3.35;1.32;;;;;;;21.88;64.06;100294.46;1763655;80;21501;-56
2021/06/20 00:51:01;;;;;;;2.50;1.50;;;;;;;21.90;64.02;100292.80;1733426;82;21106;-56
2021/06/20 00:53:28;;;;;;;6.03;1.50;;;;;;;21.90;63.94;100290.07;1758941;79;21151;-56
2021/06/20 00:55:57;;;;;;;2.98;1.47;;;;;;;21.90;63.86;100279.16;1725022;82;21071;-56
2021/06/20 00:58:24;;;;;;;3.25;1.42;;;;;;;21.85;63.88;100260.39;1732027;80;21110;-56
2021/06/20 01:00:51;;;;;;;1.87;1.22;;;;;;;21.81;63.74;100257.19;1764423;80;20888;-57
2021/06/20 01:03:17;;;;;;;9.05;1.57;;;;;;;21.78;63.89;100254.48;1764658;80;21482;-56
2021/06/20 01:05:46;;;;;;;12.88;1.95;;;;;;;21.77;63.93;100259.68;1729372;82;20991;-56
2021/06/20 01:08:12;;;;;;;10.18;1.32;;;;;;;21.76;63.78;100268.98;1763184;80;21077;-56
2021/06/20 01:10:40;;;;;;;4.97;1.80;;;;;;;21.75;63.43;100268.72;1731531;80;20882;-57
2021/06/20 01:13:11;;;;;;;3.85;1.65;;;;;;;21.73;63.45;100276.41;1731123;82;21513;-57
2021/06/20 01:15:38;;;;;;;6.00;2.65;;;;;;;21.71;63.39;100266.33;1761711;80;21475;-58
2021/06/20 01:18:04;;;;;;;10.32;1.60;;;;;;;21.70;63.31;100271.51;1763021;80;20991;-59
2021/06/20 01:20:31;;;;;;;4.80;1.42;;;;;;;21.69;63.51;100278.09;1764152;80;21075;-58
2021/06/20 01:22:58;;;;;;;3.75;1.50;;;;;;;21.69;63.32;100289.00;1764524;80;20936;-58
2021/06/20 01:25:26;;;;;;;8.03;1.35;;;;;;;21.69;63.08;100274.80;1762494;80;20951;-57
2021/06/20 01:27:58;;;;;;;7.80;2.05;;;;;;;21.67;63.19;100258.47;1731689;82;21261;-57
2021/06/20 01:30:27;;;;;;;4.95;1.60;;;;;;;21.64;63.42;100254.97;1764745;80;20916;-57
2021/06/20 01:32:55;;;;;;;4.17;1.80;;;;;;;21.62;63.61;100247.64;1734202;80;21181;-58
2021/06/20 01:35:21;;;;;;;5.83;1.67;;;;;;;21.60;63.70;100252.56;1761854;80;20998;-58
2021/06/20 01:37:48;;;;;;;4.28;1.65;;;;;;;21.57;63.67;100244.45;1734263;82;21533;-57
2021/06/20 01:40:17;;;;;;;5.47;1.62;;;;;;;21.56;63.57;100247.47;1762803;80;21012;-56
2021/06/20 01:42:45;;;;;;;6.33;1.67;;;;;;;21.51;63.22;100245.06;1731415;82;21564;-56
2021/06/20 01:45:15;;;;;;;6.45;1.60;;;;;;;21.47;63.27;100239.91;1761880;80;21163;-57
2021/06/20 01:47:41;;;;;;;11.50;1.80;;;;;;;21.45;63.16;100246.22;1732552;82;21000;-56
2021/06/20 01:50:12;;;;;;;4.75;1.67;;;;;;;21.43;63.37;100235.34;1764001;80;20889;-56
2021/06/20 01:52:38;;;;;;;6.95;1.95;;;;;;;21.41;63.26;100232.91;1764171;80;21118;-56
2021/06/20 01:55:08;;;;;;;4.83;1.62;;;;;;;21.41;63.24;100234.27;1735619;82;21020;-58
2021/06/20 01:57:36;;;;;;;6.58;1.37;;;;;;;21.41;63.48;100232.11;1764631;80;21772;-58
2021/06/20 02:00:06;;;;;;;;;;;;;;;21.41;63.19;100230.18;1735869;82;21090;-59
2021/06/20 02:02:34;;;;;;;3.95;1.67;;;;;;;21.40;62.83;100223.09;1734465;81;20416;-56
2021/06/20 02:05:01;;;;;;;3.42;1.40;;;;;;;21.41;62.52;100229.38;1735751;82;20901;-57
2021/06/20 02:07:28;;;;;;;8.97;1.90;;;;;;;21.41;61.79;100222.00;1734666;82;20893;-57
2021/06/20 02:09:56;;;;;;;9.08;1.62;;;;;;;21.43;61.29;100232.05;1737078;81;21857;-59
2021/06/20 02:12:24;;;;;;;5.85;1.60;;;;;;;21.45;61.04;100233.95;1735952;82;21083;-57
2021/06/20 02:14:51;;;;;;;;;;;;;;;21.46;61.19;100236.11;1739195;82;21489;-57
2021/06/20 02:17:28;;;;;;;3.37;1.50;;;;;;;21.45;61.27;100235.84;1734561;82;20126;-58
2021/06/20 02:19:59;;;;;;;11.95;1.70;;;;;;;21.44;61.41;100233.68;1720283;82;21022;-57
2021/06/20 02:22:26;;;;;;;5.58;1.40;;;;;;;21.44;61.34;100233.68;1696374;83;21173;-57
2021/06/20 02:24:52;;;;;;;6.03;1.65;;;;;;;21.42;61.35;100230.45;1762155;80;20955;-57
2021/06/20 02:27:19;;;;;;;3.27;1.85;;;;;;;21.40;61.37;100231.27;1762727;80;20944;-57
2021/06/20 02:29:48;;;;;;;5.00;1.70;;;;;;;21.41;61.40;100226.09;1734209;82;21498;-57
2021/06/20 02:32:15;;;;;;;5.95;1.67;;;;;;;21.41;61.39;100228.81;1764815;80;21505;-57
2021/06/20 02:34:42;;;;;;;3.75;1.37;;;;;;;21.44;61.50;100234.23;1763227;80;21165;-57
2021/06/20 02:37:09;;;;;;;7.55;1.80;;;;;;;21.48;61.36;100233.89;1728390;80;21016;-57
2021/06/20 02:39:36;;;;;;;4.70;1.60;;;;;;;21.49;61.35;100237.68;1732261;82;21448;-57
2021/06/20 02:42:04;;;;;;;6.00;1.77;;;;;;;21.54;60.96;100228.67;1734868;81;20956;-58
2021/06/20 02:44:31;;;;;;;3.70;1.50;;;;;;;21.58;60.65;100220.70;1713523;83;21083;-58
2021/06/20 02:46:59;;;;;;;6.30;1.60;;;;;;;21.62;59.91;100211.62;1715455;83;21148;-58
2021/06/20 02:49:26;;;;;;;6.97;1.35;;;;;;;21.64;59.92;100202.61;1739395;81;20924;-57
2021/06/20 02:51:53;;;;;;;4.92;1.52;;;;;;;21.67;59.69;100205.28;1714480;82;20941;-57
2021/06/20 02:54:20;;;;;;;6.05;1.40;;;;;;;21.70;59.44;100206.87;1703581;82;21152;-57
2021/06/20 02:56:47;;;;;;;7.28;2.02;;;;;;;21.75;59.11;100201.09;1742856;81;20936;-57
2021/06/20 02:59:13;;;;;;;5.50;1.70;;;;;;;21.78;59.10;100209.48;1700746;82;21193;-57
2021/06/20 03:01:42;;;;;;;7.45;2.40;;;;;;;21.82;58.74;100205.05;1726447;82;21817;-57
2021/06/20 03:04:10;;;;;;;7.25;1.35;;;;;;;21.85;58.73;100204.45;1727247;82;20996;-58
2021/06/20 03:06:38;;;;;;;4.08;1.27;;;;;;;21.92;58.53;100207.35;1736076;81;20970;-57
2021/06/20 03:09:07;;;;;;;1.20;0.98;;;;;;;21.97;58.32;100208.08;1716412;83;21004;-57
2021/06/20 03:11:40;;;;;;;;;;;;;;;21.98;57.67;100205.62;1718212;83;21877;-57
2021/06/20 03:14:03;;;;;;;9.78;1.57;;;;;;;21.97;57.85;100204.55;1738760;81;20083;-57
2021/06/20 03:16:30;;;;;;;1.67;1.05;;;;;;;21.97;57.66;100214.91;1733176;82;20889;-58
2021/06/20 03:18:56;;;;;;;3.70;1.35;;;;;;;21.96;57.71;100213.84;1734252;82;21434;-57
2021/06/20 03:21:23;;;;;;;5.62;1.20;;;;;;;21.99;57.75;100220.06;1735480;82;20948;-58
2021/06/20 03:23:49;;;;;;;4.10;1.50;;;;;;;21.99;57.86;100224.16;1736047;82;21139;-57
2021/06/20 03:26:17;;;;;;;11.70;1.37;;;;;;;21.98;57.55;100229.34;1735610;82;21383;-57
2021/06/20 03:28:44;;;;;;;3.85;1.20;;;;;;;21.94;57.15;100220.96;1734862;82;20936;-56
2021/06/20 03:31:11;;;;;;;7.80;1.30;;;;;;;21.90;56.91;100219.93;1737359;82;20936;-56
2021/06/20 03:33:37;;;;;;;5.17;1.20;;;;;;;21.86;57.41;100230.64;1734664;81;21023;-56
2021/06/20 03:36:05;;;;;;;3.27;1.27;;;;;;;21.87;57.80;100225.42;1735640;82;22152;-56
2021/06/20 03:38:32;;;;;;;7.55;1.72;;;;;;;21.95;57.61;100221.23;1732550;82;21509;-56
2021/06/20 03:40:58;;;;;;;3.22;1.62;;;;;;;22.13;57.17;100219.55;1739269;82;20940;-56
2021/06/20 03:43:25;;;;;;;2.60;1.22;;;;;;;22.28;56.76;100225.30;1733293;81;21490;-56
2021/06/20 03:45:52;;;;;;;11.35;2.62;;;;;;;22.38;56.66;100217.52;1738672;82;21032;-56
2021/06/20 03:48:19;;;;;;;8.55;2.08;;;;;;;22.53;55.86;100213.13;1732818;82;21162;-56
2021/06/20 03:50:47;;;;;;;4.03;1.37;;;;;;;22.63;55.28;100215.41;1736275;82;21482;-57
2021/06/20 03:53:13;;;;;;;3.08;1.10;;;;;;;22.61;55.44;100206.14;1737657;81;21712;-57
2021/06/20 03:55:41;;;;;;;4.63;1.10;;;;;;;22.56;54.62;100209.79;1736013;81;21044;-57
2021/06/20 03:58:08;;;;;;;3.47;1.42;;;;;;;22.56;54.62;100209.79;1731605;82;21254;-58
2021/06/20 04:00:35;;;;;;;5.95;1.87;;;;;;;22.46;54.85;100207.25;1735047;82;21112;-58
2021/06/20 04:03:03;;;;;;;3.55;1.10;;;;;;;22.37;54.82;100203.04;1736931;82;20999;-56
2021/06/20 04:05:30;;;;;;;7.15;1.72;;;;;;;22.26;55.83;100204.86;1735682;81;20932;-57
2021/06/20 04:07:58;;;;;;;;;;;;;;;22.15;55.97;100205.61;1737290;82;20936;-57
2021/06/20 04:10:25;;;;;;;3.83;1.12;;;;;;;22.08;56.64;100199.72;1737640;82;20120;-56
2021/06/20 04:12:53;;;;;;;5.83;1.50;;;;;;;22.03;56.38;100200.63;1736277;82;21174;-56
2021/06/20 04:15:22;;;;;;;3.92;2.08;;;;;;;21.96;56.57;100198.83;1734004;81;20932;-58
2021/06/20 04:17:48;;;;;;;4.97;1.50;;;;;;;21.90;57.25;100191.28;1736597;82;20936;-58
2021/06/20 04:20:16;;;;;;;3.05;1.52;;;;;;;21.90;56.33;100198.10;1738367;82;21016;-58
2021/06/20 04:22:43;;;;;;;2.20;1.30;;;;;;;21.99;56.82;100196.86;1737403;81;21791;-55
2021/06/20 04:25:16;;;;;;;5.30;1.87;;;;;;;22.16;56.78;100196.31;1733342;81;21099;-55
2021/06/20 04:27:44;;;;;;;4.10;1.40;;;;;;;22.58;55.92;100199.92;1735210;82;20971;-56
2021/06/20 04:30:13;;;;;;;4.22;1.70;;;;;;;23.25;54.59;100195.86;1734886;82;20917;-57
2021/06/20 04:32:41;;;;;;;2.70;1.32;;;;;;;24.06;52.09;100203.27;1736273;82;20940;-56
2021/06/20 04:35:11;;;;;;;7.00;1.40;;;;;;;24.81;50.68;100199.36;1737225;81;21023;-56
2021/06/20 04:37:38;;;;;;;11.53;1.77;;;;;;;25.50;47.43;100197.88;1734957;82;21059;-57
2021/06/20 04:40:07;;;;;;;6.47;2.00;;;;;;;25.92;46.34;100200.09;1736336;82;20964;-56
2021/06/20 04:42:37;;;;;;;6.47;1.20;;;;;;;26.24;45.66;100202.08;1738730;82;20928;-56
2021/06/20 04:45:04;;;;;;;5.58;1.30;;;;;;;26.63;44.40;100209.75;1734477;82;20984;-56
2021/06/20 04:47:30;;;;;;;;;;;;;;;26.79;43.00;100207.86;1740966;82;21589;-56
2021/06/20 04:49:57;;;;;;;3.15;1.12;;;;;;;26.66;42.64;100207.70;1733245;82;21081;-55
2021/06/20 04:52:24;;;;;;;9.60;1.55;;;;;;;26.23;43.30;100214.19;1733385;82;20952;-56
2021/06/20 04:54:51;;;;;;;8.43;2.25;;;;;;;25.76;44.91;100210.77;1738564;82;20969;-57
2021/06/20 04:57:23;;;;;;;5.70;1.60;;;;;;;25.45;45.71;100215.86;1738289;82;20987;-56
2021/06/20 04:59:53;;;;;;;4.80;1.40;;;;;;;25.22;45.91;100216.55;1734815;82;21042;-56
2021/06/20 05:02:21;;;;;;;9.23;1.35;;;;;;;25.11;45.93;100222.09;1733731;82;21145;-56
2021/06/20 05:04:48;;;;;;;4.40;0.83;;;;;;;25.07;46.05;100223.84;1738178;82;20933;-56
2021/06/20 05:07:15;;;;;;;4.10;1.25;;;;;;;25.28;44.85;100211.15;1733955;82;21153;-57
2021/06/20 05:09:42;;;;;;;6.70;1.22;;;;;;;25.48;45.22;100210.30;1734960;81;21051;-56
2021/06/20 05:12:10;;;;;;;5.37;1.20;;;;;;;25.60;44.34;100213.77;1736997;82;21102;-56
2021/06/20 05:14:45;;;;;;;4.87;1.22;;;;;;;25.58;45.31;100212.72;1732218;82;21854;-56
2021/06/20 05:17:17;;;;;;;4.33;1.27;;;;;;;25.79;44.86;100203.83;1735018;82;21584;-56
2021/06/20 05:19:44;;;;;;;6.50;1.42;;;;;;;26.04;44.63;100207.69;1735902;82;21573;-56
2021/06/20 05:22:11;;;;;;;3.70;1.00;;;;;;;26.30;43.91;100210.95;1734242;82;21012;-55
2021/06/20 05:24:40;;;;;;;3.50;1.20;;;;;;;26.44;42.77;100208.77;1735210;82;20945;-57
2021/06/20 05:27:08;;;;;;;8.77;1.33;;;;;;;26.46;41.91;100216.69;1738385;82;21078;-55
2021/06/20 05:29:34;;;;;;;5.28;1.85;;;;;;;26.46;42.17;100212.56;1733883;82;20877;-56
2021/06/20 05:32:02;;;;;;;3.12;1.10;;;;;;;26.43;42.91;100217.34;1738987;82;32786;-55
2021/06/20 05:34:30;;;;;;;11.03;1.47;;;;;;;26.40;42.06;100207.27;1735287;81;21466;-57
2021/06/20 05:36:56;;;;;;;6.60;1.00;;;;;;;26.40;42.56;100210.59;1736557;82;20936;-56
2021/06/20 05:39:23;;;;;;;3.22;1.32;;;;;;;26.45;41.74;100205.48;1734017;82;21148;-56
2021/06/20 05:41:49;;;;;;;7.47;1.07;;;;;;;26.32;42.32;100212.21;1719274;82;21004;-57
2021/06/20 05:44:16;;;;;;;6.53;1.30;;;;;;;26.22;42.68;100213.94;1733337;82;20975;-57
2021/06/20 05:46:43;;;;;;;4.78;1.30;;;;;;;26.18;42.08;100220.66;1736989;81;20992;-57
2021/06/20 05:49:10;;;;;;;6.97;1.47;;;;;;;26.14;42.67;100219.70;1736363;82;21043;-57
2021/06/20 05:51:37;;;;;;;6.45;1.50;;;;;;;26.13;42.61;100220.83;1732821;82;21113;-57
2021/06/20 05:54:04;;;;;;;4.92;1.20;;;;;;;26.07;42.76;100221.34;1739061;82;21534;-57
2021/06/20 05:56:30;;;;;;;8.88;1.60;;;;;;;25.94;42.75;100234.08;1739673;82;20976;-56
2021/06/20 05:58:57;;;;;;;8.88;1.55;;;;;;;25.70;43.52;100233.45;1734866;82;20944;-58
2021/06/20 06:01:24;;;;;;;3.37;0.82;;;;;;;25.65;43.73;100249.30;1735400;82;20980;-57
2021/06/20 06:03:51;;;;;;;15.95;1.75;;;;;;;25.71;43.07;100238.39;1733445;82;21225;-56
2021/06/20 06:06:18;;;;;;;6.42;1.47;;;;;;;25.85;43.20;100242.33;1739124;81;20952;-55
2021/06/20 06:08:46;;;;;;;;;;;;;;;25.96;42.63;100253.80;1734686;82;20971;-55
2021/06/20 06:11:12;;;;;;;12.25;1.90;;;;;;;25.98;42.47;100241.92;1738068;82;20540;-57
2021/06/20 06:13:39;;;;;;;4.92;1.45;;;;;;;26.00;43.35;100240.50;1736131;82;21023;-58
2021/06/20 06:16:06;;;;;;;6.00;1.30;;;;;;;26.04;43.06;100234.60;1735143;82;21812;-58
2021/06/20 06:18:32;;;;;;;4.30;1.20;;;;;;;25.97;42.84;100234.80;1735069;81;21015;-55
2021/06/20 06:20:59;;;;;;;4.50;1.20;;;;;;;25.70;42.54;100225.79;1736963;82;20849;-56
2021/06/20 06:23:26;;;;;;;5.35;1.20;;;;;;;25.42;43.69;100238.45;1738246;82;21506;-56
2021/06/20 06:25:53;;;;;;;5.12;1.47;;;;;;;25.25;44.16;100222.77;1736354;82;20968;-57
2021/06/20 06:28:19;;;;;;;8.58;1.47;;;;;;;25.23;45.00;100222.84;1736964;82;21832;-57
2021/06/20 06:30:46;;;;;;;6.92;1.02;;;;;;;25.24;45.64;100225.83;1735661;82;21092;-57
2021/06/20 06:33:13;;;;;;;3.98;1.15;;;;;;;25.34;43.99;100217.32;1736189;82;21121;-57
2021/06/20 06:35:40;;;;;;;6.80;1.30;;;;;;;25.35;43.87;100217.00;1731448;81;21113;-57
2021/06/20 06:38:06;;;;;;;7.25;1.77;;;;;;;25.42;43.38;100223.94;1736264;82;21584;-58
2021/06/20 06:40:33;;;;;;;12.03;2.05;;;;;;;25.43;44.34;100209.09;1736755;82;21183;-67
2021/06/20 06:42:59;;;;;;;8.30;1.32;;;;;;;25.61;44.72;100211.27;1736226;82;21516;-67
2021/06/20 06:45:26;;;;;;;8.88;1.10;;;;;;;25.82;43.88;100210.04;1736275;82;20936;-69
2021/06/20 06:47:53;;;;;;;3.05;1.10;;;;;;;25.91;43.26;100210.03;1736669;82;21016;-72
2021/06/20 06:50:20;;;;;;;8.28;1.67;;;;;;;25.86;43.10;100210.43;1715970;82;21103;-70
2021/06/20 06:52:47;;;;;;;7.92;1.22;;;;;;;25.85;44.18;100218.45;1732698;82;21176;-68
2021/06/20 06:55:14;;;;;;;5.90;1.67;;;;;;;26.00;44.35;100213.04;1734790;82;20975;-68
2021/06/20 06:57:41;;;;;;;10.33;1.37;;;;;;;25.94;42.57;100215.69;1731924;82;20892;-68
2021/06/20 07:00:10;;;;;;;8.55;1.12;;;;;;;25.70;44.11;100204.62;1738447;82;21739;-68
2021/06/20 07:02:36;;;;;;;;;;;;;;;25.55;44.06;100190.05;1737641;82;20999;-58
2021/06/20 07:05:04;;;;;;;8.98;1.27;;;;;;;25.54;44.30;100184.30;1735265;82;21140;-58
2021/06/20 07:07:31;;;;;;;15.85;1.40;;;;;;;25.56;45.83;100193.04;1734063;82;21721;-58
2021/06/20 07:10:00;;;;;;;9.05;1.45;;;;;;;25.64;44.56;100194.16;1734641;82;20888;-58
2021/06/20 07:12:31;;;;;;;4.90;1.52;;;;;;;25.67;45.12;100197.05;1736243;82;20881;-58
2021/06/20 07:15:00;;;;;;;7.67;1.35;;;;;;;25.78;44.51;100187.11;1738118;82;20920;-58
2021/06/20 07:17:27;;;;;;;5.65;1.50;;;;;;;25.94;43.59;100180.55;1736055;82;21147;-58
2021/06/20 07:19:53;;;;;;;10.20;1.62;;;;;;;26.02;43.45;100183.88;1737795;82;20940;-58
2021/06/20 07:53:33;;;;;;;7.17;1.60;;;;;;;26.46;42.87;100154.31;1769462;79;27941;-58
2021/06/20 07:56:00;;;;;;;8.83;1.30;;;;;;;26.49;43.21;100163.27;1756961;81;21567;-59
2021/06/20 07:58:27;;;;;;;10.43;1.60;;;;;;;26.53;43.16;100157.91;1757057;81;21158;-58
2021/06/20 08:00:54;;;;;;;11.03;1.35;;;;;;;26.61;43.64;100165.89;1757124;81;21765;-59
2021/06/20 08:03:20;;;;;;;7.10;1.57;;;;;;;26.66;43.50;100158.23;1757132;81;20975;-57
2021/06/20 08:05:47;;;;;;;4.40;1.67;;;;;;;26.69;42.22;100165.05;1757398;81;20979;-57
2021/06/20 08:08:13;;;;;;;15.13;1.32;;;;;;;26.62;42.29;100167.48;1757154;81;21568;-58
2021/06/20 08:10:41;;;;;;;8.75;1.47;;;;;;;26.56;42.13;100176.48;1757398;81;21149;-59
2021/06/20 08:13:09;;;;;;;;;;;;;;;26.55;42.84;100178.42;1759630;81;20907;-61
2021/06/20 08:15:37;;;;;;;8.65;1.40;;;;;;;26.62;41.45;100183.97;1757054;81;20084;-58
2021/06/20 08:18:06;;;;;;;11.43;2.55;;;;;;;26.60;42.36;100182.92;1756941;81;21037;-58
2021/06/20 08:20:32;;;;;;;7.45;1.62;;;;;;;26.64;42.80;100183.88;1757385;81;21012;-58
2021/06/20 08:22:59;;;;;;;7.10;1.70;;;;;;;26.79;41.28;100185.87;1757388;81;21236;-58
2021/06/20 08:25:25;;;;;;;12.18;1.50;;;;;;;26.85;40.91;100196.91;1757418;81;20951;-57
2021/06/20 08:27:52;;;;;;;12.75;1.57;;;;;;;26.80;40.47;100200.66;1757133;81;21012;-57
2021/06/20 08:30:20;;;;;;;10.80;1.42;;;;;;;26.79;40.29;100200.98;1757263;80;20998;-58
2021/06/20 08:32:46;;;;;;;9.93;1.90;;;;;;;26.78;41.51;100203.48;1757226;81;21034;-58
2021/06/20 08:35:16;;;;;;;8.73;1.52;;;;;;;26.82;41.20;100219.56;1757337;81;21164;-58
2021/06/20 08:37:43;;;;;;;6.53;1.47;;;;;;;26.79;40.67;100227.11;1757060;81;20848;-57
2021/06/20 08:40:10;;;;;;;10.00;1.55;;;;;;;26.72;40.51;100222.11;1757042;81;20929;-57
2021/06/20 08:42:37;;;;;;;7.58;1.47;;;;;;;26.62;40.48;100227.95;1757280;81;21078;-58
2021/06/20 08:45:06;;;;;;;8.13;2.02;;;;;;;26.50;41.10;100223.14;1755775;80;20979;-58
2021/06/20 08:47:34;;;;;;;12.30;1.60;;;;;;;26.39;41.73;100213.09;1757100;81;21119;-58
2021/06/20 08:50:01;;;;;;;10.95;1.40;;;;;;;26.35;41.66;100227.24;1757371;81;20998;-58
2021/06/20 08:52:29;;;;;;;11.48;2.27;;;;;;;26.27;41.72;100215.73;1788136;80;20904;-57
2021/06/20 08:55:01;;;;;;;14.03;1.77;;;;;;;26.23;41.65;100221.05;1771832;80;21058;-57
2021/06/20 08:57:34;;;;;;;8.65;1.37;;;;;;;26.23;42.44;100227.92;1785634;80;20887;-58
2021/06/20 09:00:00;;;;;;;9.75;2.12;;;;;;;26.22;42.05;100213.39;1786059;80;21128;-58
2021/06/20 09:02:28;;;;;;;8.93;1.45;;;;;;;26.12;43.03;100210.17;1785833;80;20927;-58
2021/06/20 09:05:00;;;;;;;17.03;1.50;;;;;;;26.15;43.99;100206.22;1785933;80;21456;-58
2021/06/20 09:07:32;;;;;;;5.20;1.32;;;;;;;26.32;43.82;100199.84;1785343;80;20903;-59
2021/06/20 09:10:12;;;;;;;10.63;1.55;;;;;;;26.41;42.96;100208.06;1785517;79;21418;-57
2021/06/20 09:12:44;;;;;;;11.33;1.57;;;;;;;26.43;43.06;100203.06;1783783;80;21006;-58
2021/06/20 09:15:12;;;;;;;7.87;1.40;;;;;;;26.47;43.50;100199.90;1784888;80;21020;-57
2021/06/20 09:17:39;;;;;;;8.95;1.20;;;;;;;26.63;43.54;100200.13;1781663;80;21370;-57
2021/06/20 09:20:08;;;;;;;15.50;1.70;;;;;;;26.68;41.60;100208.81;1782345;80;20943;-59
2021/06/20 09:22:34;;;;;;;15.90;1.82;;;;;;;26.52;41.64;100208.52;1785394;80;21009;-59
2021/06/20 09:25:11;;;;;;;5.50;1.65;;;;;;;26.32;42.54;100207.30;1785530;80;21527;-58
2021/06/20 09:27:38;;;;;;;10.58;1.77;;;;;;;26.31;43.25;100204.30;1785542;80;20868;-58
2021/06/20 09:30:16;;;;;;;16.25;1.90;;;;;;;26.45;42.87;100200.78;1785463;80;21009;-59
2021/06/20 09:32:58;;;;;;;6.60;1.27;;;;;;;26.53;42.66;100195.00;1783847;80;21053;-59
2021/06/20 09:35:27;;;;;;;6.60;1.32;;;;;;;26.52;42.37;100202.45;1784439;80;20993;-58
2021/06/20 09:37:56;;;;;;;16.48;1.62;;;;;;;26.46;42.28;100194.16;1785209;80;21121;-59
2021/06/20 09:40:29;;;;;;;10.28;1.30;;;;;;;26.37;42.65;100193.39;1785274;80;20918;-59
2021/06/20 09:42:57;;;;;;;8.50;1.30;;;;;;;26.30;42.74;100199.38;1785410;80;20935;-58
2021/06/20 09:45:31;;;;;;;8.00;1.65;;;;;;;26.25;42.65;100188.59;1785203;80;20994;-58
2021/06/20 09:47:58;;;;;;;11.08;1.65;;;;;;;26.25;43.48;100180.89;1782499;80;20868;-59
2021/06/20 09:50:39;;;;;;;5.53;1.12;;;;;;;26.34;43.42;100178.37;1785593;80;21112;-59
2021/06/20 09:53:06;;;;;;;5.95;1.22;;;;;;;26.49;42.99;100183.88;1785194;80;21461;-59
2021/06/20 09:55:35;;;;;;;5.60;1.35;;;;;;;26.59;42.15;100170.34;1780360;80;21517;-58
2021/06/20 09:58:02;;;;;;;4.97;1.30;;;;;;;26.55;41.43;100179.01;1780376;80;20891;-57
2021/06/20 10:00:44;;;;;;;6.03;1.20;;;;;;;26.46;42.70;100165.30;1785983;79;20927;-58
2021/06/20 10:03:23;;;;;;;6.97;1.75;;;;;;;26.47;42.77;100175.17;1785179;80;21164;-59
2021/06/20 10:05:53;;;;;;;4.72;1.15;;;;;;;26.51;42.94;100176.09;1785263;80;20891;-57
2021/06/20 10:08:20;;;;;;;6.72;1.40;;;;;;;26.61;43.29;100181.00;1785174;80;20872;-58
2021/06/20 10:10:46;;;;;;;7.42;1.40;;;;;;;26.67;43.26;100154.94;1785451;80;20970;-58
2021/06/20 10:13:14;;;;;;;7.10;1.20;;;;;;;26.64;43.05;100162.48;1785226;80;20970;-58
2021/06/20 10:15:42;;;;;;;;;;;;;;;26.56;43.42;100158.06;1788086;80;21578;-57
2021/06/20 10:18:10;;;;;;;10.13;1.40;;;;;;;26.54;43.53;100160.31;1785670;80;20079;-58
2021/06/20 10:20:37;;;;;;;6.47;1.42;;;;;;;26.54;44.23;100154.02;1785525;80;20966;-59
2021/06/20 10:23:03;;;;;;;5.33;1.15;;;;;;;26.56;45.36;100146.24;1785292;80;21037;-59
2021/06/20 10:25:34;;;;;;;11.08;1.80;;;;;;;26.64;44.49;100150.11;1785373;80;21453;-58
2021/06/20 10:28:12;;;;;;;6.30;1.50;;;;;;;26.61;45.00;100148.02;1782476;80;21133;-58
2021/06/20 10:30:39;;;;;;;3.65;1.00;;;;;;;26.64;45.09;100150.90;1784008;80;21426;-58
2021/06/20 10:33:14;;;;;;;5.92;1.35;;;;;;;26.74;44.14;100158.00;1782213;80;20982;-60
2021/06/20 10:35:42;;;;;;;3.40;1.00;;;;;;;26.78;43.04;100143.01;1785682;80;21006;-57
2021/06/20 10:38:30;;;;;;;3.70;1.60;;;;;;;26.71;42.87;100144.92;1784689;80;20915;-58
2021/06/20 10:40:56;;;;;;;7.33;2.25;;;;;;;26.65;43.54;100134.66;1783039;80;21157;-60
2021/06/20 10:43:24;;;;;;;7.83;1.50;;;;;;;26.63;43.75;100129.25;1785384;80;20982;-58
2021/06/20 10:45:50;;;;;;;13.32;1.50;;;;;;;26.63;43.23;100123.75;1784914;80;21508;-58
2021/06/20 10:48:26;;;;;;;7.65;1.05;;;;;;;26.60;44.11;100123.05;1785537;80;20939;-60
2021/06/20 10:50:58;;;;;;;5.87;1.17;;;;;;;26.64;43.29;100116.55;1784957;80;21354;-57
2021/06/20 10:53:27;;;;;;;2.45;1.10;;;;;;;26.60;43.83;100108.72;1781437;80;21507;-57
2021/06/20 10:55:58;;;;;;;6.05;1.30;;;;;;;26.61;43.98;100105.42;1771106;80;20935;-59
2021/06/20 10:58:27;;;;;;;5.45;1.10;;;;;;;26.66;44.41;100099.14;1779053;80;20994;-59
2021/06/20 11:01:14;;;;;;;6.00;1.30;;;;;;;26.74;44.20;100105.19;1779646;80;20966;-58
2021/06/20 11:03:53;;;;;;;4.58;0.80;;;;;;;26.97;40.48;100090.31;1779485;80;20860;-58
2021/06/20 11:06:24;;;;;;;10.43;1.10;;;;;;;26.97;40.48;100090.31;1777720;80;21213;-58
2021/06/20 11:09:06;;;;;;;8.25;1.22;;;;;;;27.05;39.95;100083.95;1776769;80;20975;-59
2021/06/20 11:11:58;;;;;;;5.05;0.90;;;;;;;27.11;39.10;100085.34;1778689;80;20919;-59
2021/06/20 11:14:24;;;;;;;3.77;0.70;;;;;;;27.05;37.47;100082.58;1778626;80;20998;-58
2021/06/20 11:16:51;;;;;;;3.55;1.00;;;;;;;26.95;37.03;100081.61;1776184;80;20916;-59
2021/06/20 11:19:24;;;;;;;4.05;1.10;;;;;;;26.89;36.52;100069.42;1779487;80;21822;-58
2021/06/20 11:22:03;;;;;;;2.72;0.90;;;;;;;26.89;36.72;100074.92;1779679;80;20871;-58
2021/06/20 11:24:39;;;;;;;5.72;1.32;;;;;;;26.90;35.65;100070.24;1768129;80;20880;-59
2021/06/20 11:27:18;;;;;;;4.12;1.07;;;;;;;26.87;36.28;100072.27;1776843;80;20907;-58
2021/06/20 11:29:51;;;;;;;3.77;0.98;;;;;;;26.88;35.61;100071.13;1778274;80;20966;-58
2021/06/20 11:32:22;;;;;;;7.28;1.00;;;;;;;26.88;35.86;100067.01;1774268;80;21057;-58
2021/06/20 11:34:52;;;;;;;10.00;1.32;;;;;;;26.92;35.86;100067.37;1778691;80;20915;-58
2021/06/20 11:37:25;;;;;;;3.00;1.00;;;;;;;26.97;36.04;100063.61;1779920;80;20903;-58
2021/06/20 11:40:03;;;;;;;4.97;0.70;;;;;;;27.02;36.94;100073.63;1779467;80;21014;-59
2021/06/20 11:42:32;;;;;;;2.98;1.10;;;;;;;27.08;37.03;100075.81;1780403;80;20879;-58
2021/06/20 11:45:03;;;;;;;5.17;1.30;;;;;;;27.08;37.32;100067.56;1779640;80;21089;-59
2021/06/20 11:47:40;;;;;;;1.87;0.80;;;;;;;27.06;37.50;100067.66;1779359;80;20965;-59
2021/06/20 11:50:20;;;;;;;4.37;0.90;;;;;;;27.05;38.28;100072.95;1779373;80;20991;-58
2021/06/20 11:52:52;;;;;;;9.23;1.30;;;;;;;27.04;39.19;100056.20;1779687;80;21499;-58
2021/06/20 11:55:22;;;;;;;5.22;0.70;;;;;;;27.12;39.59;100059.46;1769835;80;21006;-57
2021/06/20 11:57:49;;;;;;;8.08;1.25;;;;;;;27.21;39.34;100069.02;1779436;80;21216;-58
2021/06/20 12:00:27;;;;;;;2.80;1.15;;;;;;;27.23;38.60;100053.75;1779702;80;21414;-59
2021/06/20 12:03:06;;;;;;;7.05;1.30;;;;;;;27.28;39.33;100060.44;1779229;80;21014;-59
2021/06/20 12:05:36;;;;;;;6.65;1.42;;;;;;;27.37;38.56;100075.52;1777951;80;21576;-59